createdAt,value
2018-09-14T00:02:06.778Z,99.90
2018-09-14T00:04:37.200Z,99.90
2018-09-14T00:07:07.631Z,99.90
2018-09-14T00:09:37.101Z,99.90
2018-09-14T00:12:07.214Z,99.90
2018-09-14T00:14:37.227Z,99.90
2018-09-14T00:17:08.384Z,99.90
2018-09-14T00:19:38.031Z,99.90
2018-09-14T00:22:08.283Z,99.90
2018-09-14T00:24:38.127Z,99.90
2018-09-14T00:27:08.662Z,99.90
2018-09-14T00:29:37.834Z,99.90
2018-09-14T00:32:08.718Z,99.90
2018-09-14T00:34:39.689Z,99.90
2018-09-14T00:37:10.269Z,99.90
2018-09-14T00:39:39.536Z,99.90
2018-09-14T00:42:09.774Z,99.90
2018-09-14T00:44:41.294Z,99.90
2018-09-14T00:47:10.725Z,99.90
2018-09-14T00:49:40.694Z,99.90
2018-09-14T00:52:10.145Z,99.90
2018-09-14T00:54:39.339Z,99.90
2018-09-14T00:57:09.653Z,99.90
2018-09-14T00:59:39.420Z,99.90
2018-09-14T01:02:09.304Z,99.90
2018-09-14T01:04:39.283Z,99.90
2018-09-14T01:07:09.704Z,99.90
2018-09-14T01:09:40.338Z,99.90
2018-09-14T01:12:10.148Z,99.90
2018-09-14T01:14:40.286Z,99.90
2018-09-14T01:17:10.211Z,99.90
2018-09-14T01:19:40.573Z,99.90
2018-09-14T01:22:11.560Z,99.90
2018-09-14T01:24:40.810Z,99.90
2018-09-14T01:27:10.368Z,99.90
2018-09-14T01:29:40.452Z,99.90
2018-09-14T01:32:12.241Z,99.90
2018-09-14T01:34:42.466Z,99.90
2018-09-14T01:37:12.855Z,99.90
2018-09-14T01:39:42.823Z,99.90
2018-09-14T01:42:12.640Z,99.90
2018-09-14T01:44:42.015Z,99.90
2018-09-14T01:47:11.808Z,99.90
2018-09-14T01:49:41.231Z,99.90
2018-09-14T01:52:10.696Z,99.90
2018-09-14T01:54:40.917Z,99.90
2018-09-14T01:57:10.624Z,99.90
2018-09-14T01:59:40.118Z,99.90
2018-09-14T02:02:09.594Z,99.90
2018-09-14T02:04:38.962Z,99.90
2018-09-14T02:07:08.752Z,99.90
2018-09-14T02:09:38.332Z,99.90
2018-09-14T02:12:08.056Z,99.90
2018-09-14T02:14:37.700Z,99.90
2018-09-14T02:17:07.792Z,99.80
2018-09-14T02:19:38.424Z,99.80
2018-09-14T02:22:07.931Z,99.90
2018-09-14T02:24:37.184Z,99.90
2018-09-14T02:27:07.348Z,99.90
2018-09-14T02:29:37.997Z,99.90
2018-09-14T02:32:09.289Z,99.60
2018-09-14T02:34:38.629Z,99.70
2018-09-14T02:37:08.120Z,99.70
2018-09-14T02:39:38.264Z,99.90
2018-09-14T02:42:07.689Z,99.90
2018-09-14T02:44:37.655Z,99.90
2018-09-14T02:47:07.640Z,99.90
2018-09-14T02:49:36.703Z,99.90
2018-09-14T02:52:05.769Z,99.90
2018-09-14T02:54:35.565Z,99.90
2018-09-14T02:57:06.134Z,99.90
2018-09-14T02:59:36.177Z,99.90
2018-09-14T03:02:05.998Z,99.90
2018-09-14T03:04:35.422Z,99.90
2018-09-14T03:07:04.424Z,99.90
2018-09-14T03:09:33.833Z,99.90
2018-09-14T03:12:03.023Z,99.90
2018-09-14T03:14:32.204Z,99.90
2018-09-14T03:17:01.277Z,99.90
2018-09-14T03:19:30.932Z,99.90
2018-09-14T03:21:59.907Z,99.90
2018-09-14T03:24:29.217Z,99.90
2018-09-14T03:26:59.129Z,99.90
2018-09-14T03:29:28.284Z,99.90
2018-09-14T03:31:57.370Z,99.90
2018-09-14T03:34:26.266Z,99.90
2018-09-14T03:36:55.620Z,99.90
2018-09-14T03:39:24.769Z,99.80
2018-09-14T03:41:53.811Z,99.90
2018-09-14T03:44:23.144Z,99.80
2018-09-14T03:46:52.019Z,99.60
2018-09-14T03:49:21.003Z,99.60
2018-09-14T03:51:49.986Z,99.50
2018-09-14T03:54:19.185Z,99.60
2018-09-14T03:56:48.392Z,99.50
2018-09-14T03:59:17.230Z,99.30
2018-09-14T04:01:46.231Z,99.40
2018-09-14T04:04:15.231Z,99.30
2018-09-14T04:06:44.279Z,99.60
2018-09-14T04:09:13.405Z,99.30
2018-09-14T04:11:43.169Z,99.40
2018-09-14T04:14:12.819Z,99.30
2018-09-14T04:16:42.307Z,98.40
2018-09-14T04:19:11.815Z,98.80
2018-09-14T04:21:41.176Z,99.00
2018-09-14T04:24:10.861Z,99.00
2018-09-14T04:26:40.088Z,98.90
2018-09-14T04:29:09.905Z,98.90
2018-09-14T04:31:39.544Z,98.60
2018-09-14T04:34:09.533Z,98.70
2018-09-14T04:36:38.701Z,97.30
2018-09-14T04:39:09.771Z,96.30
2018-09-14T04:41:40.269Z,96.40
2018-09-14T04:44:10.990Z,96.60
2018-09-14T04:46:41.485Z,96.80
2018-09-14T04:49:10.654Z,96.60
2018-09-14T04:51:39.999Z,96.90
2018-09-14T04:54:09.611Z,97.00
2018-09-14T04:56:39.935Z,97.10
2018-09-14T04:59:09.253Z,97.40
2018-09-14T05:01:38.612Z,97.80
2018-09-14T05:04:08.268Z,98.00
2018-09-14T05:06:38.207Z,98.60
2018-09-14T05:09:08.335Z,98.50
2018-09-14T05:11:43.208Z,98.90
2018-09-14T05:14:12.652Z,99.30
2018-09-14T05:16:42.306Z,99.90
2018-09-14T05:19:11.520Z,99.80
2018-09-14T05:21:40.559Z,99.90
2018-09-14T05:24:10.420Z,99.90
2018-09-14T05:26:39.759Z,99.90
2018-09-14T05:29:09.239Z,99.90
2018-09-14T05:31:38.414Z,99.90
2018-09-14T05:34:08.638Z,99.90
2018-09-14T05:36:37.984Z,99.60
2018-09-14T05:39:08.161Z,99.50
2018-09-14T05:41:37.544Z,99.10
2018-09-14T05:44:07.321Z,98.50
2018-09-14T05:46:37.377Z,98.20
2018-09-14T05:49:07.924Z,97.70
2018-09-14T05:51:39.404Z,97.30
2018-09-14T05:54:08.661Z,97.20
2018-09-14T05:56:38.216Z,96.70
2018-09-14T05:59:07.319Z,96.50
2018-09-14T06:01:36.588Z,96.30
2018-09-14T06:04:05.924Z,95.50
2018-09-14T06:06:35.835Z,95.60
2018-09-14T06:09:10.091Z,94.80
2018-09-14T06:11:39.440Z,95.30
2018-09-14T06:14:10.547Z,94.00
2018-09-14T06:16:40.699Z,93.90
2018-09-14T06:19:10.107Z,93.70
2018-09-14T06:21:40.352Z,92.80
2018-09-14T06:24:11.231Z,92.30
2018-09-14T06:26:40.822Z,91.90
2018-09-14T06:29:09.945Z,91.80
2018-09-14T06:31:39.587Z,91.30
2018-09-14T06:34:08.981Z,91.60
2018-09-14T06:36:38.434Z,91.50
2018-09-14T06:39:11.072Z,92.30
2018-09-14T06:41:41.358Z,91.00
2018-09-14T06:44:11.106Z,91.30
2018-09-14T06:46:40.405Z,91.40
2018-09-14T06:49:10.389Z,90.90
2018-09-14T06:51:40.496Z,91.20
2018-09-14T06:54:10.915Z,91.10
2018-09-14T06:56:40.954Z,90.80
2018-09-14T06:59:11.087Z,90.00
2018-09-14T07:01:41.221Z,89.00
2018-09-14T07:04:11.476Z,88.60
2018-09-14T07:06:41.174Z,88.60
2018-09-14T07:09:11.924Z,87.60
2018-09-14T07:11:42.025Z,86.30
2018-09-14T07:14:12.533Z,85.80
2018-09-14T07:16:43.063Z,85.00
2018-09-14T07:19:13.019Z,84.40
2018-09-14T07:21:43.181Z,83.70
2018-09-14T07:24:12.816Z,83.20
2018-09-14T07:26:41.944Z,82.00
2018-09-14T07:29:11.363Z,82.50
2018-09-14T07:31:41.191Z,82.20
2018-09-14T07:34:10.862Z,83.10
2018-09-14T07:36:40.452Z,81.70
2018-09-14T07:39:10.857Z,80.20
2018-09-14T07:41:41.468Z,80.10
2018-09-14T07:44:11.457Z,78.40
2018-09-14T07:46:41.415Z,78.20
2018-09-14T07:49:11.276Z,76.40
2018-09-14T07:51:41.200Z,77.30
2018-09-14T07:54:11.676Z,78.10
2018-09-14T07:56:41.840Z,77.40
2018-09-14T07:59:12.953Z,78.20
2018-09-14T08:01:43.005Z,79.20
2018-09-14T08:04:12.906Z,81.20
2018-09-14T08:06:42.318Z,82.30
2018-09-14T08:09:13.760Z,82.20
2018-09-14T08:11:43.900Z,82.10
2018-09-14T08:14:13.216Z,82.00
2018-09-14T08:16:42.491Z,81.10
2018-09-14T08:19:11.756Z,82.40
2018-09-14T08:21:41.525Z,82.20
2018-09-14T08:24:10.823Z,80.60
2018-09-14T08:26:40.584Z,79.30
2018-09-14T08:29:10.201Z,79.10
2018-09-14T08:31:39.682Z,78.90
2018-09-14T08:34:09.047Z,77.60
2018-09-14T08:36:38.110Z,77.70
2018-09-14T08:39:09.436Z,76.40
2018-09-14T08:41:38.587Z,76.60
2018-09-14T08:44:08.569Z,76.20
2018-09-14T08:46:39.256Z,76.10
2018-09-14T08:49:08.236Z,75.90
2018-09-14T08:51:37.642Z,76.30
2018-09-14T08:54:07.625Z,76.00
2018-09-14T08:56:37.370Z,76.10
2018-09-14T08:59:07.032Z,75.00
2018-09-14T09:01:37.982Z,72.80
2018-09-14T09:04:09.355Z,71.40
2018-09-14T09:06:39.941Z,69.00
2018-09-14T09:09:11.880Z,67.40
2018-09-14T09:11:42.253Z,66.90
2018-09-14T09:14:11.433Z,67.00
2018-09-14T09:16:40.956Z,66.80
2018-09-14T09:19:10.258Z,66.70
2018-09-14T09:21:39.812Z,67.90
2018-09-14T09:24:10.059Z,68.70
2018-09-14T09:26:39.510Z,68.90
2018-09-14T09:29:08.974Z,69.40
2018-09-14T09:31:37.970Z,70.00
2018-09-14T09:34:08.022Z,69.80
2018-09-14T09:36:38.059Z,69.30
2018-09-14T09:39:10.468Z,67.80
2018-09-14T09:41:40.090Z,70.00
2018-09-14T09:44:09.829Z,70.20
2018-09-14T09:46:39.683Z,69.20
2018-09-14T09:49:10.046Z,69.10
2018-09-14T09:51:39.807Z,69.50
2018-09-14T09:54:09.292Z,69.50
2018-09-14T09:56:38.953Z,70.40
2018-09-14T09:59:09.202Z,71.10
2018-09-14T10:01:46.994Z,70.90
2018-09-14T10:04:21.320Z,70.80
2018-09-14T10:06:50.424Z,71.10
2018-09-14T10:09:19.587Z,70.60
2018-09-14T10:11:49.062Z,70.90
2018-09-14T10:14:18.011Z,70.70
2018-09-14T10:16:47.264Z,70.10
2018-09-14T10:19:16.602Z,70.50
2018-09-14T10:21:45.519Z,70.20
2018-09-14T10:24:14.713Z,70.20
2018-09-14T10:26:44.614Z,70.30
2018-09-14T10:29:14.576Z,70.40
2018-09-14T10:31:43.841Z,70.50
2018-09-14T10:34:13.195Z,70.90
2018-09-14T10:36:42.863Z,71.00
2018-09-14T10:39:12.931Z,71.40
2018-09-14T10:41:42.672Z,71.40
2018-09-14T10:44:12.263Z,71.90
2018-09-14T10:46:42.103Z,72.50
2018-09-14T10:49:12.026Z,72.40
2018-09-14T10:51:41.811Z,72.10
2018-09-14T10:54:11.746Z,71.40
2018-09-14T10:56:41.883Z,71.60
2018-09-14T10:59:11.970Z,70.80
2018-09-14T11:01:41.748Z,71.30
2018-09-14T11:04:11.808Z,71.30
2018-09-14T11:06:41.590Z,71.50
2018-09-14T11:09:14.738Z,70.80
2018-09-14T11:11:44.835Z,70.70
2018-09-14T11:14:14.242Z,70.90
2018-09-14T11:16:43.316Z,70.40
2018-09-14T11:19:13.950Z,71.00
2018-09-14T11:21:43.683Z,70.60
2018-09-14T11:24:12.772Z,70.60
2018-09-14T11:26:42.673Z,70.70
2018-09-14T11:29:11.805Z,71.10
2018-09-14T11:31:41.382Z,71.00
2018-09-14T11:34:10.480Z,70.40
2018-09-14T11:36:39.584Z,69.80
2018-09-14T11:39:10.585Z,69.40
2018-09-14T11:41:40.962Z,69.40
2018-09-14T11:44:10.795Z,69.40
2018-09-14T11:46:40.324Z,69.10
2018-09-14T11:49:09.462Z,68.70
2018-09-14T11:51:39.041Z,68.20
2018-09-14T11:54:09.148Z,67.80
2018-09-14T11:56:39.251Z,68.40
2018-09-14T11:59:09.151Z,67.90
2018-09-14T12:01:39.631Z,69.00
2018-09-14T12:04:09.644Z,69.10
2018-09-14T12:06:39.108Z,69.10
2018-09-14T12:09:11.146Z,69.40
2018-09-14T12:11:41.210Z,68.70
2018-09-14T12:14:11.445Z,68.20
2018-09-14T12:16:41.491Z,68.10
2018-09-14T12:19:11.382Z,68.00
2018-09-14T12:21:40.437Z,68.10
2018-09-14T12:24:09.937Z,67.80
2018-09-14T12:26:40.032Z,67.80
2018-09-14T12:29:09.803Z,67.50
2018-09-14T12:31:45.793Z,67.10
2018-09-14T12:34:14.772Z,67.00
2018-09-14T12:36:43.781Z,67.00
2018-09-14T12:39:13.561Z,66.90
2018-09-14T12:41:43.213Z,66.80
2018-09-14T12:44:12.410Z,66.20
2018-09-14T12:46:43.046Z,66.40
2018-09-14T12:49:13.245Z,66.10
2018-09-14T12:51:42.785Z,65.80
2018-09-14T12:54:11.882Z,65.20
2018-09-14T12:56:42.177Z,65.20
2018-09-14T12:59:11.657Z,65.00
2018-09-14T13:01:41.140Z,66.00
2018-09-14T13:04:11.236Z,64.90
2018-09-14T13:06:40.593Z,63.90
2018-09-14T13:09:12.249Z,63.90
2018-09-14T13:11:42.035Z,64.50
2018-09-14T13:14:12.463Z,65.00
2018-09-14T13:16:42.206Z,65.10
2018-09-14T13:19:11.549Z,66.00
2018-09-14T13:21:41.888Z,66.20
2018-09-14T13:24:12.026Z,66.70
2018-09-14T13:26:42.067Z,66.70
2018-09-14T13:29:11.471Z,66.40
2018-09-14T13:31:40.966Z,65.70
2018-09-14T13:34:11.335Z,65.50
2018-09-14T13:36:40.549Z,65.90
2018-09-14T13:39:12.047Z,65.60
2018-09-14T13:41:42.259Z,65.70
2018-09-14T13:44:11.510Z,64.30
2018-09-14T13:46:41.121Z,64.20
2018-09-14T13:49:10.792Z,64.70
2018-09-14T13:51:40.841Z,64.30
2018-09-14T13:54:10.419Z,63.40
2018-09-14T13:56:42.335Z,62.80
2018-09-14T13:59:12.147Z,62.50
2018-09-14T14:01:42.389Z,63.40
2018-09-14T14:04:12.298Z,62.30
2018-09-14T14:06:41.570Z,62.30
2018-09-14T14:09:13.557Z,62.10
2018-09-14T14:11:43.997Z,62.50
2018-09-14T14:14:13.413Z,62.30
2018-09-14T14:16:42.981Z,62.50
2018-09-14T14:19:12.289Z,62.50
2018-09-14T14:21:42.334Z,62.30
2018-09-14T14:24:12.861Z,62.20
2018-09-14T14:26:42.217Z,62.10
2018-09-14T14:29:11.714Z,62.10
2018-09-14T14:31:41.739Z,62.10
2018-09-14T14:34:11.429Z,62.30
2018-09-14T14:36:40.618Z,62.50
2018-09-14T14:39:10.462Z,63.10
2018-09-14T14:41:40.376Z,63.00
2018-09-14T14:44:10.137Z,63.00
2018-09-14T14:46:39.726Z,63.40
2018-09-14T14:49:09.617Z,63.10
2018-09-14T14:51:39.561Z,62.90
2018-09-14T14:54:09.243Z,63.10
2018-09-14T14:56:39.124Z,62.90
2018-09-14T14:59:09.231Z,63.20
2018-09-14T15:01:38.681Z,62.90
2018-09-14T15:04:08.320Z,62.00
2018-09-14T15:06:38.235Z,61.10
2018-09-14T15:09:08.725Z,61.70
2018-09-14T15:11:39.244Z,61.30
2018-09-14T15:14:09.057Z,62.00
2018-09-14T15:16:38.495Z,62.10
2018-09-14T15:19:09.108Z,61.90
2018-09-14T15:21:39.922Z,61.70
2018-09-14T15:24:09.273Z,62.50
2018-09-14T15:26:38.786Z,61.70
2018-09-14T15:29:08.547Z,61.40
2018-09-14T15:31:37.965Z,60.70
2018-09-14T15:34:06.929Z,61.00
2018-09-14T15:36:37.377Z,61.20
2018-09-14T15:39:11.273Z,61.00
2018-09-14T15:41:41.591Z,61.20
2018-09-14T15:44:10.859Z,61.20
2018-09-14T15:46:40.266Z,62.70
2018-09-14T15:49:10.299Z,63.70
2018-09-14T15:51:40.327Z,64.20
2018-09-14T15:54:09.603Z,66.20
2018-09-14T15:56:39.803Z,67.00
2018-09-14T15:59:09.162Z,66.90
2018-09-14T16:01:39.864Z,67.50
2018-09-14T16:04:10.537Z,67.90
2018-09-14T16:06:40.837Z,67.60
2018-09-14T16:09:11.219Z,67.80
2018-09-14T16:11:41.381Z,67.80
2018-09-14T16:14:10.781Z,67.80
2018-09-14T16:16:40.964Z,68.20
2018-09-14T16:19:11.528Z,68.10
2018-09-14T16:21:41.144Z,68.60
2018-09-14T16:24:11.471Z,68.40
2018-09-14T16:26:41.143Z,68.80
2018-09-14T16:29:10.946Z,69.00
2018-09-14T16:31:41.483Z,69.00
2018-09-14T16:34:12.947Z,69.50
2018-09-14T16:36:43.005Z,70.00
2018-09-14T16:39:13.838Z,70.30
2018-09-14T16:41:43.691Z,70.40
2018-09-14T16:44:13.112Z,70.40
2018-09-14T16:46:42.636Z,70.60
2018-09-14T16:49:12.553Z,70.90
2018-09-14T16:51:42.936Z,71.20
2018-09-14T16:54:12.936Z,71.00
2018-09-14T16:56:42.418Z,71.60
2018-09-14T16:59:13.630Z,72.30
2018-09-14T17:01:44.478Z,72.40
2018-09-14T17:04:14.070Z,72.30
2018-09-14T17:06:44.517Z,72.70
2018-09-14T17:09:14.414Z,73.10
2018-09-14T17:11:43.992Z,73.30
2018-09-14T17:14:14.529Z,73.80
2018-09-14T17:16:44.185Z,74.00
2018-09-14T17:19:13.276Z,74.40
2018-09-14T17:21:43.279Z,74.60
2018-09-14T17:24:13.111Z,75.10
2018-09-14T17:26:43.175Z,75.30
2018-09-14T17:29:13.347Z,75.30
2018-09-14T17:31:42.713Z,75.60
2018-09-14T17:34:13.230Z,76.10
2018-09-14T17:36:43.008Z,76.20
2018-09-14T17:39:12.237Z,76.40
2018-09-14T17:41:42.307Z,76.70
2018-09-14T17:44:11.394Z,76.90
2018-09-14T17:46:41.424Z,77.40
2018-09-14T17:49:10.556Z,77.50
2018-09-14T17:51:40.918Z,77.40
2018-09-14T17:54:11.007Z,77.70
2018-09-14T17:56:40.613Z,77.80
2018-09-14T17:59:10.682Z,77.70
2018-09-14T18:01:40.087Z,77.90
2018-09-14T18:04:09.881Z,78.30
2018-09-14T18:06:39.855Z,78.40
2018-09-14T18:09:11.052Z,78.70
2018-09-14T18:11:41.042Z,78.70
2018-09-14T18:14:11.360Z,78.60
2018-09-14T18:16:41.232Z,79.20
2018-09-14T18:19:11.639Z,79.30
2018-09-14T18:21:41.587Z,79.70
2018-09-14T18:24:11.509Z,79.80
2018-09-14T18:26:40.997Z,80.00
2018-09-14T18:29:11.166Z,80.50
2018-09-14T18:31:41.047Z,80.80
2018-09-14T18:34:11.710Z,81.70
2018-09-14T18:36:41.878Z,82.00
2018-09-14T18:39:13.325Z,83.30
2018-09-14T18:41:43.410Z,84.20
2018-09-14T18:44:13.376Z,84.40
2018-09-14T18:46:43.301Z,84.90
2018-09-14T18:49:13.850Z,85.40
2018-09-14T18:51:43.851Z,85.50
2018-09-14T18:54:14.005Z,85.80
2018-09-14T18:56:43.973Z,87.00
2018-09-14T18:59:13.634Z,86.50
2018-09-14T19:01:43.569Z,86.70
2018-09-14T19:04:13.259Z,87.10
2018-09-14T19:06:43.061Z,87.60
2018-09-14T19:09:13.959Z,88.20
2018-09-14T19:11:44.618Z,87.80
2018-09-14T19:14:14.903Z,88.10
2018-09-14T19:16:45.270Z,88.60
2018-09-14T19:19:15.267Z,88.60
2018-09-14T19:21:46.329Z,88.90
2018-09-14T19:24:16.593Z,89.20
2018-09-14T19:26:46.777Z,89.20
2018-09-14T19:29:16.614Z,89.50
2018-09-14T19:31:46.565Z,89.80
2018-09-14T19:34:17.182Z,89.90
2018-09-14T19:36:48.381Z,90.70
2018-09-14T19:39:18.374Z,90.70
2018-09-14T19:41:48.231Z,90.60
2018-09-14T19:44:18.182Z,91.00
2018-09-14T19:46:48.625Z,91.30
2018-09-14T19:49:18.428Z,91.60
2018-09-14T19:51:48.429Z,91.60
2018-09-14T19:54:18.358Z,91.60
2018-09-14T19:56:47.917Z,91.90
2018-09-14T19:59:17.567Z,92.10
2018-09-14T20:01:47.460Z,92.10
2018-09-14T20:04:17.351Z,92.50
2018-09-14T20:06:47.825Z,92.60
2018-09-14T20:09:18.044Z,92.70
2018-09-14T20:11:47.876Z,92.90
2018-09-14T20:14:17.928Z,93.10
2018-09-14T20:16:47.277Z,93.40
2018-09-14T20:19:17.152Z,93.70
2018-09-14T20:21:47.448Z,93.70
2018-09-14T20:24:17.604Z,93.40
2018-09-14T20:26:47.581Z,93.80
2018-09-14T20:29:17.698Z,93.80
2018-09-14T20:31:47.409Z,94.00
2018-09-14T20:34:17.256Z,94.40
2018-09-14T20:36:47.695Z,95.20
2018-09-14T20:39:17.523Z,94.50
2018-09-14T20:41:47.667Z,94.40
2018-09-14T20:44:17.663Z,94.40
2018-09-14T20:46:48.592Z,94.20
2018-09-14T20:49:18.595Z,94.80
2018-09-14T20:51:48.504Z,93.90
2018-09-14T20:54:18.209Z,93.50
2018-09-14T20:56:47.549Z,93.30
2018-09-14T20:59:17.898Z,93.30
2018-09-14T21:01:49.180Z,93.10
2018-09-14T21:04:22.097Z,92.90
2018-09-14T21:06:51.897Z,92.80
2018-09-14T21:09:21.419Z,92.50
2018-09-14T21:11:51.272Z,92.50
2018-09-14T21:14:20.729Z,92.50
2018-09-14T21:16:51.469Z,92.10
2018-09-14T21:19:21.361Z,92.10
2018-09-14T21:21:51.293Z,92.10
2018-09-14T21:24:22.859Z,92.20
2018-09-14T21:26:53.622Z,92.20
2018-09-14T21:29:24.941Z,91.70
2018-09-14T21:31:54.490Z,92.00
2018-09-14T21:34:23.970Z,91.80
2018-09-14T21:36:53.336Z,92.00
2018-09-14T21:39:23.025Z,91.90
2018-09-14T21:41:52.369Z,91.90
2018-09-14T21:44:21.525Z,91.80
2018-09-14T21:46:50.479Z,91.90
2018-09-14T21:49:19.786Z,92.80
2018-09-14T21:51:48.686Z,92.10
2018-09-14T21:54:18.037Z,92.10
2018-09-14T21:56:47.258Z,92.40
2018-09-14T21:59:16.300Z,92.20
2018-09-14T22:01:45.830Z,92.70
2018-09-14T22:04:14.924Z,92.40
2018-09-14T22:06:44.121Z,92.60
2018-09-14T22:09:13.523Z,92.30
2018-09-14T22:11:42.751Z,92.30
2018-09-14T22:14:12.792Z,92.40
2018-09-14T22:16:42.399Z,92.50
2018-09-14T22:19:12.564Z,92.10
2018-09-14T22:21:42.097Z,92.30
2018-09-14T22:24:12.951Z,92.30
2018-09-14T22:26:42.403Z,92.30
2018-09-14T22:29:12.663Z,92.20
2018-09-14T22:31:42.131Z,92.20
2018-09-14T22:34:11.614Z,92.10
2018-09-14T22:36:41.117Z,92.00
2018-09-14T22:39:12.639Z,91.80
2018-09-14T22:41:41.707Z,92.30
2018-09-14T22:44:10.660Z,92.20
2018-09-14T22:46:41.327Z,92.20
2018-09-14T22:49:11.130Z,92.10
2018-09-14T22:51:40.683Z,92.10
2018-09-14T22:54:10.923Z,92.10
2018-09-14T22:56:40.765Z,92.00
2018-09-14T22:59:11.387Z,91.70
2018-09-14T23:01:44.193Z,91.40
2018-09-14T23:04:13.825Z,91.10
2018-09-14T23:06:43.547Z,91.10
2018-09-14T23:09:14.193Z,91.00
2018-09-14T23:11:44.509Z,90.80
2018-09-14T23:14:14.490Z,90.70
2018-09-14T23:16:43.974Z,90.90
2018-09-14T23:19:13.486Z,90.90
2018-09-14T23:21:42.689Z,90.70
2018-09-14T23:24:12.571Z,90.40
2018-09-14T23:26:42.682Z,90.50
2018-09-14T23:29:12.347Z,89.90
2018-09-14T23:31:42.834Z,90.00
2018-09-14T23:34:12.899Z,89.90
2018-09-14T23:36:42.145Z,89.80
2018-09-14T23:39:12.603Z,89.50
2018-09-14T23:41:42.562Z,89.10
2018-09-14T23:44:18.109Z,89.10
2018-09-14T23:46:47.657Z,88.80
2018-09-14T23:49:17.444Z,90.00
2018-09-14T23:51:47.088Z,89.90
2018-09-14T23:54:17.306Z,88.20
2018-09-14T23:56:47.060Z,86.50
2018-09-14T23:59:16.483Z,86.30
